sensor_id;sensor_type;location;lat;lon;timestamp;P1;durP1;ratioP1;P2;durP2;ratioP2
54259;SDS011;40172;53.022;7.012;2023-05-28T00:00:43;28.15;;;9.07;;
54259;SDS011;40172;53.022;7.012;2023-05-28T00:03:09;30.75;;;10.38;;
54259;SDS011;40172;53.022;7.012;2023-05-28T00:05:35;29.10;;;10.18;;
54259;SDS011;40172;53.022;7.012;2023-05-28T00:08:01;31.50;;;10.95;;
54259;SDS011;40172;53.022;7.012;2023-05-28T00:10:27;34.92;;;11.88;;
54259;SDS011;40172;53.022;7.012;2023-05-28T00:12:52;35.63;;;12.25;;
54259;SDS011;40172;53.022;7.012;2023-05-28T00:15:18;37.10;;;13.23;;
54259;SDS011;40172;53.022;7.012;2023-05-28T00:17:44;36.05;;;12.05;;
54259;SDS011;40172;53.022;7.012;2023-05-28T00:20:10;35.95;;;12.07;;
54259;SDS011;40172;53.022;7.012;2023-05-28T00:22:36;30.77;;;10.95;;
54259;SDS011;40172;53.022;7.012;2023-05-28T00:25:03;37.28;;;12.23;;
54259;SDS011;40172;53.022;7.012;2023-05-28T00:27:29;40.53;;;11.75;;
54259;SDS011;40172;53.022;7.012;2023-05-28T00:29:54;34.50;;;11.40;;
54259;SDS011;40172;53.022;7.012;2023-05-28T00:32:20;34.38;;;11.80;;
54259;SDS011;40172;53.022;7.012;2023-05-28T00:34:45;35.10;;;11.80;;
54259;SDS011;40172;53.022;7.012;2023-05-28T00:37:11;37.95;;;12.13;;
54259;SDS011;40172;53.022;7.012;2023-05-28T00:39:36;34.83;;;12.40;;
54259;SDS011;40172;53.022;7.012;2023-05-28T00:42:02;33.60;;;12.27;;
54259;SDS011;40172;53.022;7.012;2023-05-28T00:44:29;35.92;;;12.68;;
54259;SDS011;40172;53.022;7.012;2023-05-28T00:46:56;39.78;;;12.45;;
54259;SDS011;40172;53.022;7.012;2023-05-28T00:49:22;41.38;;;13.20;;
54259;SDS011;40172;53.022;7.012;2023-05-28T00:51:48;46.05;;;13.13;;
54259;SDS011;40172;53.022;7.012;2023-05-28T00:54:15;32.40;;;12.13;;
54259;SDS011;40172;53.022;7.012;2023-05-28T00:56:41;41.28;;;13.38;;
54259;SDS011;40172;53.022;7.012;2023-05-28T00:59:08;43.38;;;14.82;;
54259;SDS011;40172;53.022;7.012;2023-05-28T01:01:37;37.30;;;13.00;;
54259;SDS011;40172;53.022;7.012;2023-05-28T01:04:04;18.95;;;5.13;;
54259;SDS011;40172;53.022;7.012;2023-05-28T01:06:30;15.63;;;4.78;;
54259;SDS011;40172;53.022;7.012;2023-05-28T01:08:56;37.10;;;13.38;;
54259;SDS011;40172;53.022;7.012;2023-05-28T01:11:22;34.80;;;12.18;;
54259;SDS011;40172;53.022;7.012;2023-05-28T01:13:48;38.90;;;13.68;;
54259;SDS011;40172;53.022;7.012;2023-05-28T01:16:15;38.63;;;12.90;;
54259;SDS011;40172;53.022;7.012;2023-05-28T01:18:40;36.47;;;13.10;;
54259;SDS011;40172;53.022;7.012;2023-05-28T01:23:45;42.08;;;13.93;;
54259;SDS011;40172;53.022;7.012;2023-05-28T01:26:12;18.55;;;4.82;;
54259;SDS011;40172;53.022;7.012;2023-05-28T01:28:38;41.67;;;13.90;;
54259;SDS011;40172;53.022;7.012;2023-05-28T01:31:09;49.85;;;14.82;;
54259;SDS011;40172;53.022;7.012;2023-05-28T01:33:35;41.83;;;14.98;;
54259;SDS011;40172;53.022;7.012;2023-05-28T01:36:02;40.92;;;13.80;;
54259;SDS011;40172;53.022;7.012;2023-05-28T01:38:30;39.00;;;14.38;;
54259;SDS011;40172;53.022;7.012;2023-05-28T01:40:58;38.55;;;15.25;;
54259;SDS011;40172;53.022;7.012;2023-05-28T01:43:25;42.53;;;16.10;;
54259;SDS011;40172;53.022;7.012;2023-05-28T01:45:51;38.97;;;15.40;;
54259;SDS011;40172;53.022;7.012;2023-05-28T01:48:17;52.50;;;16.55;;
54259;SDS011;40172;53.022;7.012;2023-05-28T01:50:43;39.78;;;14.77;;
54259;SDS011;40172;53.022;7.012;2023-05-28T01:53:09;43.47;;;15.43;;
54259;SDS011;40172;53.022;7.012;2023-05-28T01:55:35;43.22;;;15.30;;
54259;SDS011;40172;53.022;7.012;2023-05-28T01:58:01;43.70;;;16.08;;
54259;SDS011;40172;53.022;7.012;2023-05-28T02:00:27;46.00;;;15.10;;
54259;SDS011;40172;53.022;7.012;2023-05-28T02:02:52;41.90;;;15.68;;
54259;SDS011;40172;53.022;7.012;2023-05-28T02:05:18;35.35;;;14.88;;
54259;SDS011;40172;53.022;7.012;2023-05-28T02:07:44;41.72;;;14.13;;
54259;SDS011;40172;53.022;7.012;2023-05-28T02:10:10;38.90;;;14.75;;
54259;SDS011;40172;53.022;7.012;2023-05-28T02:12:36;45.33;;;15.77;;
54259;SDS011;40172;53.022;7.012;2023-05-28T02:15:01;44.25;;;16.98;;
54259;SDS011;40172;53.022;7.012;2023-05-28T02:17:27;43.97;;;16.15;;
54259;SDS011;40172;53.022;7.012;2023-05-28T02:19:52;43.87;;;14.83;;
54259;SDS011;40172;53.022;7.012;2023-05-28T02:22:18;42.33;;;14.70;;
54259;SDS011;40172;53.022;7.012;2023-05-28T02:24:44;38.47;;;14.75;;
54259;SDS011;40172;53.022;7.012;2023-05-28T02:27:11;44.00;;;14.50;;
54259;SDS011;40172;53.022;7.012;2023-05-28T02:29:37;34.22;;;14.18;;
54259;SDS011;40172;53.022;7.012;2023-05-28T02:32:03;31.75;;;14.20;;
54259;SDS011;40172;53.022;7.012;2023-05-28T02:34:29;44.10;;;15.13;;
54259;SDS011;40172;53.022;7.012;2023-05-28T02:36:55;41.83;;;13.80;;
54259;SDS011;40172;53.022;7.012;2023-05-28T02:39:21;35.72;;;13.93;;
54259;SDS011;40172;53.022;7.012;2023-05-28T02:41:47;33.15;;;12.98;;
54259;SDS011;40172;53.022;7.012;2023-05-28T02:44:13;38.03;;;12.77;;
54259;SDS011;40172;53.022;7.012;2023-05-28T02:46:39;39.58;;;14.43;;
54259;SDS011;40172;53.022;7.012;2023-05-28T02:49:05;39.17;;;14.30;;
54259;SDS011;40172;53.022;7.012;2023-05-28T02:51:31;43.55;;;14.15;;
54259;SDS011;40172;53.022;7.012;2023-05-28T02:53:56;37.95;;;14.35;;
54259;SDS011;40172;53.022;7.012;2023-05-28T02:56:22;38.90;;;13.48;;
54259;SDS011;40172;53.022;7.012;2023-05-28T02:58:48;23.30;;;5.25;;
54259;SDS011;40172;53.022;7.012;2023-05-28T03:01:13;19.23;;;4.38;;
54259;SDS011;40172;53.022;7.012;2023-05-28T03:03:39;39.70;;;14.85;;
54259;SDS011;40172;53.022;7.012;2023-05-28T03:06:05;13.93;;;5.45;;
54259;SDS011;40172;53.022;7.012;2023-05-28T03:08:32;11.75;;;3.75;;
54259;SDS011;40172;53.022;7.012;2023-05-28T03:10:57;41.65;;;16.90;;
54259;SDS011;40172;53.022;7.012;2023-05-28T03:13:23;42.38;;;16.00;;
54259;SDS011;40172;53.022;7.012;2023-05-28T03:15:48;40.25;;;14.77;;
54259;SDS011;40172;53.022;7.012;2023-05-28T03:18:14;44.80;;;16.13;;
54259;SDS011;40172;53.022;7.012;2023-05-28T03:20:40;41.30;;;15.48;;
54259;SDS011;40172;53.022;7.012;2023-05-28T03:23:06;17.67;;;4.68;;
54259;SDS011;40172;53.022;7.012;2023-05-28T03:25:31;37.53;;;14.25;;
54259;SDS011;40172;53.022;7.012;2023-05-28T03:27:57;44.83;;;15.13;;
54259;SDS011;40172;53.022;7.012;2023-05-28T03:30:22;40.45;;;14.27;;
54259;SDS011;40172;53.022;7.012;2023-05-28T03:32:48;40.15;;;15.55;;
54259;SDS011;40172;53.022;7.012;2023-05-28T03:35:14;43.30;;;14.63;;
54259;SDS011;40172;53.022;7.012;2023-05-28T03:37:40;44.88;;;15.00;;
54259;SDS011;40172;53.022;7.012;2023-05-28T03:40:06;39.42;;;15.55;;
54259;SDS011;40172;53.022;7.012;2023-05-28T03:42:33;39.30;;;13.95;;
54259;SDS011;40172;53.022;7.012;2023-05-28T03:45:00;38.70;;;14.30;;
54259;SDS011;40172;53.022;7.012;2023-05-28T03:47:25;35.40;;;14.10;;
54259;SDS011;40172;53.022;7.012;2023-05-28T03:49:55;37.33;;;13.25;;
54259;SDS011;40172;53.022;7.012;2023-05-28T03:52:21;30.52;;;12.35;;
54259;SDS011;40172;53.022;7.012;2023-05-28T03:54:47;36.22;;;13.25;;
54259;SDS011;40172;53.022;7.012;2023-05-28T03:57:12;35.15;;;13.50;;
54259;SDS011;40172;53.022;7.012;2023-05-28T03:59:38;35.83;;;12.25;;
54259;SDS011;40172;53.022;7.012;2023-05-28T04:02:03;38.30;;;13.10;;
54259;SDS011;40172;53.022;7.012;2023-05-28T04:04:29;35.42;;;12.10;;
54259;SDS011;40172;53.022;7.012;2023-05-28T04:06:54;32.35;;;12.73;;
54259;SDS011;40172;53.022;7.012;2023-05-28T04:09:20;33.38;;;12.73;;
54259;SDS011;40172;53.022;7.012;2023-05-28T04:11:46;32.28;;;11.77;;
54259;SDS011;40172;53.022;7.012;2023-05-28T04:14:12;32.42;;;13.00;;
54259;SDS011;40172;53.022;7.012;2023-05-28T04:16:37;34.97;;;12.20;;
54259;SDS011;40172;53.022;7.012;2023-05-28T04:19:03;31.77;;;11.60;;
54259;SDS011;40172;53.022;7.012;2023-05-28T04:21:29;32.63;;;12.25;;
54259;SDS011;40172;53.022;7.012;2023-05-28T04:23:54;34.40;;;11.77;;
54259;SDS011;40172;53.022;7.012;2023-05-28T04:26:20;36.65;;;12.38;;
54259;SDS011;40172;53.022;7.012;2023-05-28T04:28:47;35.35;;;11.60;;
54259;SDS011;40172;53.022;7.012;2023-05-28T04:31:13;34.58;;;10.50;;
54259;SDS011;40172;53.022;7.012;2023-05-28T04:33:39;35.30;;;12.60;;
54259;SDS011;40172;53.022;7.012;2023-05-28T04:36:05;31.15;;;11.32;;
54259;SDS011;40172;53.022;7.012;2023-05-28T04:38:33;36.55;;;11.90;;
54259;SDS011;40172;53.022;7.012;2023-05-28T04:40:59;31.27;;;10.30;;
54259;SDS011;40172;53.022;7.012;2023-05-28T04:43:31;32.65;;;11.20;;
54259;SDS011;40172;53.022;7.012;2023-05-28T04:45:58;32.63;;;10.43;;
54259;SDS011;40172;53.022;7.012;2023-05-28T04:48:25;29.23;;;9.93;;
54259;SDS011;40172;53.022;7.012;2023-05-28T04:50:51;24.10;;;8.73;;
54259;SDS011;40172;53.022;7.012;2023-05-28T04:53:18;27.45;;;10.20;;
54259;SDS011;40172;53.022;7.012;2023-05-28T04:55:43;33.65;;;9.30;;
54259;SDS011;40172;53.022;7.012;2023-05-28T04:58:11;29.40;;;9.55;;
54259;SDS011;40172;53.022;7.012;2023-05-28T05:00:37;30.38;;;9.77;;
54259;SDS011;40172;53.022;7.012;2023-05-28T05:03:03;32.03;;;9.82;;
54259;SDS011;40172;53.022;7.012;2023-05-28T05:05:28;28.17;;;9.48;;
54259;SDS011;40172;53.022;7.012;2023-05-28T05:07:54;23.85;;;9.27;;
54259;SDS011;40172;53.022;7.012;2023-05-28T05:10:20;24.83;;;9.15;;
54259;SDS011;40172;53.022;7.012;2023-05-28T05:12:45;28.77;;;9.02;;
54259;SDS011;40172;53.022;7.012;2023-05-28T05:15:11;24.38;;;7.82;;
54259;SDS011;40172;53.022;7.012;2023-05-28T05:17:37;27.63;;;8.52;;
54259;SDS011;40172;53.022;7.012;2023-05-28T05:20:03;25.52;;;8.15;;
54259;SDS011;40172;53.022;7.012;2023-05-28T05:22:32;25.10;;;7.68;;
54259;SDS011;40172;53.022;7.012;2023-05-28T05:24:57;25.35;;;8.25;;
54259;SDS011;40172;53.022;7.012;2023-05-28T05:27:23;20.33;;;7.45;;
54259;SDS011;40172;53.022;7.012;2023-05-28T05:29:48;23.65;;;7.32;;
54259;SDS011;40172;53.022;7.012;2023-05-28T05:32:14;29.27;;;7.93;;
54259;SDS011;40172;53.022;7.012;2023-05-28T05:34:40;26.55;;;7.28;;
54259;SDS011;40172;53.022;7.012;2023-05-28T05:37:06;23.85;;;7.57;;
54259;SDS011;40172;53.022;7.012;2023-05-28T05:39:31;25.40;;;7.45;;
54259;SDS011;40172;53.022;7.012;2023-05-28T05:41:57;24.00;;;6.63;;
54259;SDS011;40172;53.022;7.012;2023-05-28T05:44:23;22.50;;;7.00;;
54259;SDS011;40172;53.022;7.012;2023-05-28T05:46:48;20.67;;;6.50;;
54259;SDS011;40172;53.022;7.012;2023-05-28T05:49:14;21.88;;;6.53;;
54259;SDS011;40172;53.022;7.012;2023-05-28T05:51:40;24.58;;;6.80;;
54259;SDS011;40172;53.022;7.012;2023-05-28T05:54:05;17.83;;;6.90;;
54259;SDS011;40172;53.022;7.012;2023-05-28T05:56:31;21.10;;;6.55;;
54259;SDS011;40172;53.022;7.012;2023-05-28T05:58:57;17.65;;;6.20;;
54259;SDS011;40172;53.022;7.012;2023-05-28T06:01:23;19.65;;;6.35;;
54259;SDS011;40172;53.022;7.012;2023-05-28T06:03:49;20.38;;;6.50;;
54259;SDS011;40172;53.022;7.012;2023-05-28T06:06:15;20.40;;;6.60;;
54259;SDS011;40172;53.022;7.012;2023-05-28T06:08:41;19.27;;;6.43;;
54259;SDS011;40172;53.022;7.012;2023-05-28T06:11:06;18.08;;;6.20;;
54259;SDS011;40172;53.022;7.012;2023-05-28T06:13:32;17.85;;;6.85;;
54259;SDS011;40172;53.022;7.012;2023-05-28T06:16:00;23.85;;;6.85;;
54259;SDS011;40172;53.022;7.012;2023-05-28T06:18:26;20.75;;;6.57;;
54259;SDS011;40172;53.022;7.012;2023-05-28T06:20:52;15.65;;;6.95;;
54259;SDS011;40172;53.022;7.012;2023-05-28T06:23:18;16.40;;;6.40;;
54259;SDS011;40172;53.022;7.012;2023-05-28T06:25:43;18.55;;;6.05;;
54259;SDS011;40172;53.022;7.012;2023-05-28T06:28:09;23.40;;;5.90;;
54259;SDS011;40172;53.022;7.012;2023-05-28T06:30:35;15.32;;;5.65;;
54259;SDS011;40172;53.022;7.012;2023-05-28T06:33:01;15.65;;;5.65;;
54259;SDS011;40172;53.022;7.012;2023-05-28T06:35:27;18.35;;;6.25;;
54259;SDS011;40172;53.022;7.012;2023-05-28T06:37:53;19.00;;;6.28;;
54259;SDS011;40172;53.022;7.012;2023-05-28T06:40:18;18.08;;;5.65;;
54259;SDS011;40172;53.022;7.012;2023-05-28T06:42:44;15.93;;;5.93;;
54259;SDS011;40172;53.022;7.012;2023-05-28T06:45:10;17.10;;;6.72;;
54259;SDS011;40172;53.022;7.012;2023-05-28T06:47:36;18.80;;;6.28;;
54259;SDS011;40172;53.022;7.012;2023-05-28T06:50:01;16.10;;;6.13;;
54259;SDS011;40172;53.022;7.012;2023-05-28T06:52:27;16.42;;;6.18;;
54259;SDS011;40172;53.022;7.012;2023-05-28T06:54:53;18.83;;;6.93;;
54259;SDS011;40172;53.022;7.012;2023-05-28T06:57:19;15.82;;;6.15;;
54259;SDS011;40172;53.022;7.012;2023-05-28T06:59:45;18.67;;;6.28;;
54259;SDS011;40172;53.022;7.012;2023-05-28T07:02:11;13.57;;;5.57;;
54259;SDS011;40172;53.022;7.012;2023-05-28T07:04:37;17.02;;;6.53;;
54259;SDS011;40172;53.022;7.012;2023-05-28T07:07:03;17.25;;;6.43;;
54259;SDS011;40172;53.022;7.012;2023-05-28T07:09:29;17.52;;;6.28;;
54259;SDS011;40172;53.022;7.012;2023-05-28T07:11:55;18.00;;;6.38;;
54259;SDS011;40172;53.022;7.012;2023-05-28T07:14:20;12.35;;;5.53;;
54259;SDS011;40172;53.022;7.012;2023-05-28T07:16:46;16.25;;;5.88;;
54259;SDS011;40172;53.022;7.012;2023-05-28T07:19:11;16.35;;;6.32;;
54259;SDS011;40172;53.022;7.012;2023-05-28T07:21:37;15.95;;;5.85;;
54259;SDS011;40172;53.022;7.012;2023-05-28T07:24:03;14.27;;;5.60;;
54259;SDS011;40172;53.022;7.012;2023-05-28T07:26:30;14.02;;;5.43;;
54259;SDS011;40172;53.022;7.012;2023-05-28T07:28:56;13.65;;;5.95;;
54259;SDS011;40172;53.022;7.012;2023-05-28T07:31:22;13.13;;;5.78;;
54259;SDS011;40172;53.022;7.012;2023-05-28T07:33:48;16.63;;;6.18;;
54259;SDS011;40172;53.022;7.012;2023-05-28T07:36:14;11.60;;;5.95;;
54259;SDS011;40172;53.022;7.012;2023-05-28T07:38:40;13.35;;;5.90;;
54259;SDS011;40172;53.022;7.012;2023-05-28T07:41:07;12.82;;;6.20;;
54259;SDS011;40172;53.022;7.012;2023-05-28T07:43:32;14.20;;;6.20;;
54259;SDS011;40172;53.022;7.012;2023-05-28T07:45:58;15.13;;;6.75;;
54259;SDS011;40172;53.022;7.012;2023-05-28T07:48:23;13.60;;;6.70;;
54259;SDS011;40172;53.022;7.012;2023-05-28T07:50:49;13.35;;;6.70;;
54259;SDS011;40172;53.022;7.012;2023-05-28T07:53:14;13.13;;;6.70;;
54259;SDS011;40172;53.022;7.012;2023-05-28T07:55:41;14.38;;;6.88;;
54259;SDS011;40172;53.022;7.012;2023-05-28T07:58:07;10.98;;;6.10;;
54259;SDS011;40172;53.022;7.012;2023-05-28T08:00:32;13.68;;;6.60;;
54259;SDS011;40172;53.022;7.012;2023-05-28T08:02:58;12.55;;;6.82;;
54259;SDS011;40172;53.022;7.012;2023-05-28T08:05:24;15.52;;;6.55;;
54259;SDS011;40172;53.022;7.012;2023-05-28T08:07:49;13.85;;;6.68;;
54259;SDS011;40172;53.022;7.012;2023-05-28T08:10:15;14.75;;;6.93;;
54259;SDS011;40172;53.022;7.012;2023-05-28T08:12:40;17.50;;;6.85;;
54259;SDS011;40172;53.022;7.012;2023-05-28T08:15:06;16.80;;;6.75;;
54259;SDS011;40172;53.022;7.012;2023-05-28T08:17:32;14.50;;;6.75;;
54259;SDS011;40172;53.022;7.012;2023-05-28T08:19:58;18.70;;;7.13;;
54259;SDS011;40172;53.022;7.012;2023-05-28T08:22:24;13.80;;;6.70;;
54259;SDS011;40172;53.022;7.012;2023-05-28T08:24:50;12.25;;;6.50;;
54259;SDS011;40172;53.022;7.012;2023-05-28T08:27:15;13.82;;;5.95;;
54259;SDS011;40172;53.022;7.012;2023-05-28T08:29:41;16.02;;;6.70;;
54259;SDS011;40172;53.022;7.012;2023-05-28T08:32:07;12.85;;;6.70;;
54259;SDS011;40172;53.022;7.012;2023-05-28T08:34:32;12.15;;;6.35;;
54259;SDS011;40172;53.022;7.012;2023-05-28T08:37:00;15.48;;;6.78;;
54259;SDS011;40172;53.022;7.012;2023-05-28T08:39:26;11.85;;;6.07;;
54259;SDS011;40172;53.022;7.012;2023-05-28T08:41:52;12.20;;;5.90;;
54259;SDS011;40172;53.022;7.012;2023-05-28T08:44:18;16.73;;;6.88;;
54259;SDS011;40172;53.022;7.012;2023-05-28T08:46:44;13.63;;;6.38;;
54259;SDS011;40172;53.022;7.012;2023-05-28T08:49:10;14.32;;;6.45;;
54259;SDS011;40172;53.022;7.012;2023-05-28T08:51:40;12.30;;;6.32;;
54259;SDS011;40172;53.022;7.012;2023-05-28T08:54:07;14.10;;;6.72;;
54259;SDS011;40172;53.022;7.012;2023-05-28T08:56:33;11.25;;;5.88;;
54259;SDS011;40172;53.022;7.012;2023-05-28T08:58:59;12.82;;;6.43;;
54259;SDS011;40172;53.022;7.012;2023-05-28T09:01:26;11.13;;;5.70;;
54259;SDS011;40172;53.022;7.012;2023-05-28T09:03:52;12.13;;;6.75;;
54259;SDS011;40172;53.022;7.012;2023-05-28T09:06:18;11.43;;;6.00;;
54259;SDS011;40172;53.022;7.012;2023-05-28T09:08:44;9.98;;;5.63;;
54259;SDS011;40172;53.022;7.012;2023-05-28T09:11:13;12.10;;;6.25;;
54259;SDS011;40172;53.022;7.012;2023-05-28T09:13:43;11.02;;;5.80;;
54259;SDS011;40172;53.022;7.012;2023-05-28T09:16:14;12.75;;;6.10;;
54259;SDS011;40172;53.022;7.012;2023-05-28T09:18:51;10.20;;;6.15;;
54259;SDS011;40172;53.022;7.012;2023-05-28T09:21:26;11.43;;;6.13;;
54259;SDS011;40172;53.022;7.012;2023-05-28T09:23:51;10.63;;;5.78;;
54259;SDS011;40172;53.022;7.012;2023-05-28T09:26:17;11.60;;;5.50;;
54259;SDS011;40172;53.022;7.012;2023-05-28T09:28:44;13.68;;;6.05;;
54259;SDS011;40172;53.022;7.012;2023-05-28T09:31:11;11.23;;;6.03;;
54259;SDS011;40172;53.022;7.012;2023-05-28T09:33:44;11.32;;;5.43;;
54259;SDS011;40172;53.022;7.012;2023-05-28T09:36:10;13.20;;;6.18;;
54259;SDS011;40172;53.022;7.012;2023-05-28T09:38:40;10.30;;;5.75;;
54259;SDS011;40172;53.022;7.012;2023-05-28T09:41:26;9.40;;;5.50;;
54259;SDS011;40172;53.022;7.012;2023-05-28T09:44:02;11.70;;;6.15;;
54259;SDS011;40172;53.022;7.012;2023-05-28T09:46:34;8.20;;;5.47;;
54259;SDS011;40172;53.022;7.012;2023-05-28T09:49:00;9.18;;;5.65;;
54259;SDS011;40172;53.022;7.012;2023-05-28T09:51:27;9.98;;;5.22;;
54259;SDS011;40172;53.022;7.012;2023-05-28T09:53:55;9.70;;;5.75;;
54259;SDS011;40172;53.022;7.012;2023-05-28T09:56:23;10.18;;;5.47;;
54259;SDS011;40172;53.022;7.012;2023-05-28T09:58:52;8.70;;;5.22;;
54259;SDS011;40172;53.022;7.012;2023-05-28T10:01:20;11.75;;;5.28;;
54259;SDS011;40172;53.022;7.012;2023-05-28T10:03:51;8.15;;;5.18;;
54259;SDS011;40172;53.022;7.012;2023-05-28T10:06:23;15.18;;;5.38;;
54259;SDS011;40172;53.022;7.012;2023-05-28T10:08:51;9.13;;;5.03;;
54259;SDS011;40172;53.022;7.012;2023-05-28T10:11:25;11.43;;;5.53;;
54259;SDS011;40172;53.022;7.012;2023-05-28T10:13:54;7.93;;;4.93;;
54259;SDS011;40172;53.022;7.012;2023-05-28T10:16:19;8.30;;;5.20;;
54259;SDS011;40172;53.022;7.012;2023-05-28T10:18:46;9.10;;;4.97;;
54259;SDS011;40172;53.022;7.012;2023-05-28T10:21:11;11.32;;;5.22;;
54259;SDS011;40172;53.022;7.012;2023-05-28T10:23:41;6.75;;;5.15;;
54259;SDS011;40172;53.022;7.012;2023-05-28T10:26:08;7.47;;;5.10;;
54259;SDS011;40172;53.022;7.012;2023-05-28T10:28:34;7.88;;;4.70;;
54259;SDS011;40172;53.022;7.012;2023-05-28T10:31:06;10.00;;;5.10;;
54259;SDS011;40172;53.022;7.012;2023-05-28T10:33:42;7.35;;;5.25;;
54259;SDS011;40172;53.022;7.012;2023-05-28T10:36:12;8.52;;;4.97;;
54259;SDS011;40172;53.022;7.012;2023-05-28T10:38:46;10.52;;;5.13;;
54259;SDS011;40172;53.022;7.012;2023-05-28T10:41:18;8.27;;;4.47;;
54259;SDS011;40172;53.022;7.012;2023-05-28T10:43:45;7.25;;;4.82;;
54259;SDS011;40172;53.022;7.012;2023-05-28T10:46:15;8.82;;;4.82;;
54259;SDS011;40172;53.022;7.012;2023-05-28T10:51:47;7.65;;;4.88;;
54259;SDS011;40172;53.022;7.012;2023-05-28T10:57:07;8.18;;;4.65;;
54259;SDS011;40172;53.022;7.012;2023-05-28T11:02:26;8.23;;;5.15;;
54259;SDS011;40172;53.022;7.012;2023-05-28T11:04:53;10.13;;;4.60;;
54259;SDS011;40172;53.022;7.012;2023-05-28T11:07:21;8.02;;;4.43;;
54259;SDS011;40172;53.022;7.012;2023-05-28T11:09:55;7.45;;;4.78;;
54259;SDS011;40172;53.022;7.012;2023-05-28T11:12:22;6.80;;;4.65;;
54259;SDS011;40172;53.022;7.012;2023-05-28T11:14:50;9.00;;;5.10;;
54259;SDS011;40172;53.022;7.012;2023-05-28T11:17:16;8.27;;;5.00;;
54259;SDS011;40172;53.022;7.012;2023-05-28T11:19:46;8.40;;;5.38;;
54259;SDS011;40172;53.022;7.012;2023-05-28T11:22:13;8.70;;;5.20;;
54259;SDS011;40172;53.022;7.012;2023-05-28T11:27:26;7.03;;;4.88;;
54259;SDS011;40172;53.022;7.012;2023-05-28T11:29:53;6.93;;;4.97;;
54259;SDS011;40172;53.022;7.012;2023-05-28T11:32:21;8.68;;;5.68;;
54259;SDS011;40172;53.022;7.012;2023-05-28T11:34:47;9.02;;;5.68;;
54259;SDS011;40172;53.022;7.012;2023-05-28T11:37:14;7.05;;;6.00;;
54259;SDS011;40172;53.022;7.012;2023-05-28T11:39:53;9.55;;;5.57;;
54259;SDS011;40172;53.022;7.012;2023-05-28T11:42:20;9.40;;;5.60;;
54259;SDS011;40172;53.022;7.012;2023-05-28T11:44:47;7.75;;;5.40;;
54259;SDS011;40172;53.022;7.012;2023-05-28T11:47:13;9.25;;;4.93;;
54259;SDS011;40172;53.022;7.012;2023-05-28T11:49:40;8.52;;;5.35;;
54259;SDS011;40172;53.022;7.012;2023-05-28T11:52:16;5.53;;;4.25;;
54259;SDS011;40172;53.022;7.012;2023-05-28T11:54:44;7.63;;;5.10;;
54259;SDS011;40172;53.022;7.012;2023-05-28T11:57:16;9.18;;;4.82;;
54259;SDS011;40172;53.022;7.012;2023-05-28T12:00:00;6.43;;;4.30;;
54259;SDS011;40172;53.022;7.012;2023-05-28T12:02:41;7.22;;;4.32;;
54259;SDS011;40172;53.022;7.012;2023-05-28T12:05:27;7.70;;;4.43;;
54259;SDS011;40172;53.022;7.012;2023-05-28T12:07:53;6.88;;;4.20;;
54259;SDS011;40172;53.022;7.012;2023-05-28T12:10:20;7.35;;;3.97;;
54259;SDS011;40172;53.022;7.012;2023-05-28T12:12:51;8.38;;;4.10;;
54259;SDS011;40172;53.022;7.012;2023-05-28T12:15:20;8.32;;;4.32;;
54259;SDS011;40172;53.022;7.012;2023-05-28T12:17:52;8.63;;;3.92;;
54259;SDS011;40172;53.022;7.012;2023-05-28T12:22:44;8.50;;;3.90;;
54259;SDS011;40172;53.022;7.012;2023-05-28T12:25:10;6.68;;;3.80;;
54259;SDS011;40172;53.022;7.012;2023-05-28T12:27:36;7.95;;;3.50;;
54259;SDS011;40172;53.022;7.012;2023-05-28T12:30:02;6.78;;;3.60;;
54259;SDS011;40172;53.022;7.012;2023-05-28T12:32:29;14.63;;;5.47;;
54259;SDS011;40172;53.022;7.012;2023-05-28T12:34:55;21.05;;;5.40;;
54259;SDS011;40172;53.022;7.012;2023-05-28T12:37:23;8.50;;;4.32;;
54259;SDS011;40172;53.022;7.012;2023-05-28T12:39:49;9.27;;;3.80;;
54259;SDS011;40172;53.022;7.012;2023-05-28T12:42:15;8.80;;;4.10;;
54259;SDS011;40172;53.022;7.012;2023-05-28T12:44:41;8.82;;;4.05;;
54259;SDS011;40172;53.022;7.012;2023-05-28T12:47:07;8.63;;;3.55;;
54259;SDS011;40172;53.022;7.012;2023-05-28T12:49:32;8.68;;;3.33;;
54259;SDS011;40172;53.022;7.012;2023-05-28T12:51:58;8.98;;;3.55;;
54259;SDS011;40172;53.022;7.012;2023-05-28T12:54:24;9.93;;;3.33;;
54259;SDS011;40172;53.022;7.012;2023-05-28T12:56:49;7.57;;;3.42;;
54259;SDS011;40172;53.022;7.012;2023-05-28T12:59:28;8.38;;;3.75;;
54259;SDS011;40172;53.022;7.012;2023-05-28T13:01:53;8.32;;;3.45;;
54259;SDS011;40172;53.022;7.012;2023-05-28T13:04:23;8.77;;;3.58;;
54259;SDS011;40172;53.022;7.012;2023-05-28T13:06:49;8.65;;;3.67;;
54259;SDS011;40172;53.022;7.012;2023-05-28T13:09:16;12.80;;;3.70;;
54259;SDS011;40172;53.022;7.012;2023-05-28T13:11:42;12.32;;;3.67;;
54259;SDS011;40172;53.022;7.012;2023-05-28T13:14:08;11.50;;;3.55;;
54259;SDS011;40172;53.022;7.012;2023-05-28T13:16:35;12.18;;;3.10;;
54259;SDS011;40172;53.022;7.012;2023-05-28T13:19:01;14.20;;;3.25;;
54259;SDS011;40172;53.022;7.012;2023-05-28T13:21:27;9.48;;;3.50;;
54259;SDS011;40172;53.022;7.012;2023-05-28T13:24:03;9.60;;;3.08;;
54259;SDS011;40172;53.022;7.012;2023-05-28T13:26:31;11.00;;;2.95;;
54259;SDS011;40172;53.022;7.012;2023-05-28T13:28:59;8.60;;;2.97;;
54259;SDS011;40172;53.022;7.012;2023-05-28T13:31:25;9.38;;;3.38;;
54259;SDS011;40172;53.022;7.012;2023-05-28T13:33:50;9.43;;;3.17;;
54259;SDS011;40172;53.022;7.012;2023-05-28T13:36:16;11.15;;;3.20;;
54259;SDS011;40172;53.022;7.012;2023-05-28T13:38:42;8.38;;;2.80;;
54259;SDS011;40172;53.022;7.012;2023-05-28T13:41:09;9.98;;;3.15;;
54259;SDS011;40172;53.022;7.012;2023-05-28T13:43:36;14.13;;;3.53;;
54259;SDS011;40172;53.022;7.012;2023-05-28T13:46:03;12.80;;;3.30;;
54259;SDS011;40172;53.022;7.012;2023-05-28T13:48:29;7.55;;;3.10;;
54259;SDS011;40172;53.022;7.012;2023-05-28T13:50:55;11.55;;;3.28;;
54259;SDS011;40172;53.022;7.012;2023-05-28T13:53:21;14.25;;;3.08;;
54259;SDS011;40172;53.022;7.012;2023-05-28T13:55:46;10.23;;;2.95;;
54259;SDS011;40172;53.022;7.012;2023-05-28T13:58:12;12.10;;;3.70;;
54259;SDS011;40172;53.022;7.012;2023-05-28T14:00:37;10.85;;;3.78;;
54259;SDS011;40172;53.022;7.012;2023-05-28T14:03:04;13.43;;;3.67;;
54259;SDS011;40172;53.022;7.012;2023-05-28T14:05:29;9.23;;;3.75;;
54259;SDS011;40172;53.022;7.012;2023-05-28T14:07:55;10.38;;;3.60;;
54259;SDS011;40172;53.022;7.012;2023-05-28T14:10:20;10.43;;;3.45;;
54259;SDS011;40172;53.022;7.012;2023-05-28T14:12:50;10.80;;;3.45;;
54259;SDS011;40172;53.022;7.012;2023-05-28T14:15:16;13.20;;;3.65;;
54259;SDS011;40172;53.022;7.012;2023-05-28T14:17:42;11.10;;;2.90;;
54259;SDS011;40172;53.022;7.012;2023-05-28T14:20:07;6.95;;;3.00;;
54259;SDS011;40172;53.022;7.012;2023-05-28T14:22:33;11.55;;;3.28;;
54259;SDS011;40172;53.022;7.012;2023-05-28T14:24:59;14.38;;;4.38;;
54259;SDS011;40172;53.022;7.012;2023-05-28T14:27:25;12.75;;;4.22;;
54259;SDS011;40172;53.022;7.012;2023-05-28T14:29:50;10.18;;;3.80;;
54259;SDS011;40172;53.022;7.012;2023-05-28T14:32:16;12.57;;;4.07;;
54259;SDS011;40172;53.022;7.012;2023-05-28T14:34:42;13.80;;;4.32;;
54259;SDS011;40172;53.022;7.012;2023-05-28T14:37:07;10.63;;;3.30;;
54259;SDS011;40172;53.022;7.012;2023-05-28T14:39:33;10.75;;;3.80;;
54259;SDS011;40172;53.022;7.012;2023-05-28T14:41:58;10.93;;;3.50;;
54259;SDS011;40172;53.022;7.012;2023-05-28T14:44:24;8.23;;;3.35;;
54259;SDS011;40172;53.022;7.012;2023-05-28T14:46:49;10.90;;;3.22;;